Time;durP1;ratioP1;P1;durP2;ratioP2;P2;SDS_P1;SDS_P2;PMS_P1;PMS_P2;Temp;Humidity;BMP_temperature;BMP_pressure;BME280_temperature;BME280_humidity;BME280_pressure;Samples;Min_cycle;Max_cycle;Signal;HPM_P1;HPM_P2
2023/01/20 00:01:33;;;;;;;38.35;10.77;;;-1.40;100.00;;;;;;5000344;28;20116;-91
2023/01/20 00:04:00;;;;;;;43.00;11.10;;;-1.40;100.00;;;;;;4984556;28;20060;-91
2023/01/20 00:06:27;;;;;;;49.35;11.32;;;-1.40;100.00;;;;;;4986728;28;20057;-91
2023/01/20 00:08:59;;;;;;;39.03;11.25;;;-1.50;100.00;;;;;;4987002;28;20057;-92
2023/01/20 00:11:30;;;;;;;45.93;12.37;;;-1.50;100.00;;;;;;5005997;28;20064;-92
2023/01/20 00:14:01;;;;;;;41.22;11.30;;;-1.50;100.00;;;;;;4991145;28;20311;-92
2023/01/20 00:16:30;;;;;;;30.23;10.15;;;-1.50;100.00;;;;;;4987058;28;20056;-91
2023/01/20 00:18:58;;;;;;;37.03;10.45;;;-1.50;100.00;;;;;;4989329;28;20050;-92
2023/01/20 00:21:26;;;;;;;35.85;11.57;;;-1.60;100.00;;;;;;5001765;28;20076;-91
2023/01/20 00:23:55;;;;;;;37.78;12.95;;;-1.60;100.00;;;;;;5004708;28;20065;-92
2023/01/20 00:26:25;;;;;;;45.30;11.57;;;-1.60;100.00;;;;;;4987937;28;20427;-92
2023/01/20 00:28:54;;;;;;;39.53;11.48;;;-1.60;100.00;;;;;;4987858;28;20439;-92
2023/01/20 00:31:34;;;;;;;37.88;10.45;;;-1.60;100.00;;;;;;4989076;28;20046;-92
2023/01/20 00:34:04;;;;;;;36.78;11.93;;;-1.60;100.00;;;;;;5003887;28;20140;-92
2023/01/20 00:36:32;;;;;;;36.45;10.82;;;-1.60;100.00;;;;;;4988317;28;20045;-93
2023/01/20 00:39:01;;;;;;;35.22;12.27;;;-1.60;100.00;;;;;;4987423;28;20255;-93
2023/01/20 00:41:30;;;;;;;41.00;12.65;;;-1.50;100.00;;;;;;5005584;28;20057;-93
2023/01/20 00:43:58;;;;;;;60.15;13.77;;;-1.60;100.00;;;;;;5001749;28;20050;-93
2023/01/20 00:46:26;;;;;;;52.78;13.98;;;-1.60;100.00;;;;;;4986833;28;20054;-92
2023/01/20 00:48:54;;;;;;;54.45;13.57;;;-1.60;100.00;;;;;;4986611;28;20054;-92
2023/01/20 00:51:21;;;;;;;39.92;12.77;;;-1.50;100.00;;;;;;5002513;28;20050;-92
2023/01/20 00:53:48;;;;;;;44.10;13.45;;;-1.50;100.00;;;;;;4987886;28;20060;-93
2023/01/20 00:56:17;;;;;;;46.10;13.95;;;-1.50;100.00;;;;;;4971511;28;20050;-92
2023/01/20 00:58:44;;;;;;;48.15;13.35;;;-1.50;100.00;;;;;;4988912;28;20041;-92
2023/01/20 01:01:20;;;;;;;;;;;-1.40;100.00;;;;;;4989882;28;20052;-93
2023/01/20 01:03:56;;;;;;;43.42;13.55;;;-1.40;100.00;;;;;;4991145;28;19926;-92
2023/01/20 01:06:26;;;;;;;51.67;14.55;;;-1.50;100.00;;;;;;5005221;28;20057;-92
2023/01/20 01:09:03;;;;;;;50.67;15.07;;;-1.50;100.00;;;;;;5009684;28;20057;-93
2023/01/20 01:11:32;;;;;;;45.95;14.35;;;-1.50;100.00;;;;;;4993064;28;20049;-93
2023/01/20 01:14:06;;;;;;;56.55;16.20;;;-1.50;100.00;;;;;;5006946;28;20050;-93
2023/01/20 01:16:35;;;;;;;63.63;16.10;;;-1.50;100.00;;;;;;4990074;28;20057;-93
2023/01/20 01:19:04;;;;;;;51.28;13.95;;;-1.50;100.00;;;;;;5003563;28;20050;-93
2023/01/20 01:21:32;;;;;;;45.25;14.32;;;-1.50;100.00;;;;;;4990700;28;20062;-91
2023/01/20 01:24:00;;;;;;;61.42;13.93;;;-1.50;100.00;;;;;;4989788;28;20148;-93
2023/01/20 01:26:29;;;;;;;43.00;13.07;;;-1.50;100.00;;;;;;5002548;28;20854;-92
2023/01/20 01:28:58;;;;;;;47.80;14.18;;;-1.50;100.00;;;;;;4969985;28;20061;-92
2023/01/20 01:31:25;;;;;;;50.15;13.75;;;-1.60;100.00;;;;;;4971201;28;20147;-92
2023/01/20 01:33:54;;;;;;;57.92;14.55;;;-1.50;100.00;;;;;;4991121;28;20137;-93
2023/01/20 01:36:25;;;;;;;41.88;14.18;;;-1.50;100.00;;;;;;5003592;28;20382;-93
2023/01/20 01:38:56;;;;;;;47.00;15.05;;;-1.50;100.00;;;;;;4994120;28;20053;-92
2023/01/20 01:41:33;;;;;;;51.25;14.93;;;-1.40;100.00;;;;;;5006518;28;20329;-93
2023/01/20 01:44:12;;;;;;;52.88;14.93;;;-1.40;100.00;;;;;;5011714;28;20518;-93
2023/01/20 01:46:41;;;;;;;52.28;15.82;;;-1.40;100.00;;;;;;4994132;28;20050;-93
2023/01/20 01:49:24;;;;;;;51.50;16.40;;;-1.40;100.00;;;;;;4996351;28;20061;-94
2023/01/20 01:52:01;;;;;;;52.67;16.17;;;-1.40;100.00;;;;;;5009774;28;20080;-93
2023/01/20 01:54:35;;;;;;;60.45;16.85;;;-1.40;100.00;;;;;;5008955;28;20042;-93
2023/01/20 01:57:08;;;;;;;54.35;16.23;;;-1.40;100.00;;;;;;5009462;28;20045;-93
2023/01/20 01:59:43;;;;;;;51.70;16.05;;;-1.30;100.00;;;;;;4992991;28;20042;-94
2023/01/20 02:02:12;;;;;;;46.75;14.57;;;-1.30;100.00;;;;;;4989350;28;21030;-92
2023/01/20 02:04:43;;;;;;;59.10;17.40;;;-1.30;100.00;;;;;;4985142;28;20140;-92
2023/01/20 02:07:14;;;;;;;56.25;17.33;;;-1.30;100.00;;;;;;4988229;28;20062;-92
2023/01/20 02:09:45;;;;;;;64.80;16.88;;;-1.30;100.00;;;;;;5003935;28;20038;-93
2023/01/20 02:12:19;;;;;;;54.50;16.52;;;-1.30;100.00;;;;;;4999856;28;20050;-92
2023/01/20 02:14:56;;;;;;;65.05;17.80;;;-1.30;100.00;;;;;;4987113;28;20054;-93
2023/01/20 02:17:38;;;;;;;57.15;16.75;;;-1.30;100.00;;;;;;4987816;28;20351;-91
2023/01/20 02:20:37;;;;;;;65.90;17.60;;;-1.30;100.00;;;;;;5006783;28;20065;-93
2023/01/20 02:23:21;;;;;;;58.92;16.55;;;-1.30;100.00;;;;;;5009375;28;20434;-94
2023/01/20 02:26:15;;;;;;;52.65;16.80;;;-1.30;100.00;;;;;;5010164;28;20054;-94
2023/01/20 02:29:29;;;;;;;55.95;17.35;;;-1.40;100.00;;;;;;5010326;28;20053;-94
2023/01/20 02:32:07;;;;;;;55.88;16.30;;;-1.40;100.00;;;;;;4958551;28;20050;-93
2023/01/20 02:35:08;;;;;;;56.10;16.65;;;-1.50;100.00;;;;;;4996148;28;20057;-94
2023/01/20 02:37:48;;;;;;;49.78;16.90;;;-1.50;100.00;;;;;;4996973;28;20064;-95
2023/01/20 02:40:36;;;;;;;54.65;17.38;;;-1.50;100.00;;;;;;4994432;28;20115;-95
2023/01/20 02:43:28;;;;;;;58.28;18.13;;;-1.50;100.00;;;;;;4992723;28;20081;-93
2023/01/20 02:46:25;;;;;;;72.80;20.60;;;-1.50;100.00;;;;;;4988148;28;20080;-94
2023/01/20 02:49:35;;;;;;;59.88;17.20;;;-1.50;100.00;;;;;;4996668;28;20064;-95
2023/01/20 02:52:13;;;;;;;69.10;17.47;;;-1.50;100.00;;;;;;5007651;28;20114;-95
2023/01/20 02:54:49;;;;;;;66.63;18.65;;;-1.60;100.00;;;;;;5010843;28;20308;-94
2023/01/20 02:57:34;;;;;;;74.72;18.80;;;-1.60;100.00;;;;;;5012057;28;20053;-94
2023/01/20 03:00:21;;;;;;;62.45;19.63;;;-1.60;100.00;;;;;;4999435;28;20411;-94
2023/01/20 03:02:53;;;;;;;62.42;16.95;;;-1.70;100.00;;;;;;5010983;28;20135;-94
2023/01/20 03:05:26;;;;;;;71.82;19.55;;;-1.70;100.00;;;;;;4992621;28;20057;-94
2023/01/20 03:08:04;;;;;;;65.20;18.60;;;-1.70;100.00;;;;;;4976394;28;20053;-94
2023/01/20 03:10:37;;;;;;;73.60;18.88;;;-1.70;100.00;;;;;;4986483;28;20248;-95
2023/01/20 03:13:26;;;;;;;65.38;17.83;;;-1.60;100.00;;;;;;5032301;28;20136;-96
2023/01/20 03:15:58;;;;;;;63.28;18.63;;;-1.60;100.00;;;;;;5003220;28;20100;-93
2023/01/20 03:18:33;;;;;;;72.60;19.88;;;-1.60;100.00;;;;;;5018021;28;20058;-96
2023/01/20 03:21:09;;;;;;;72.22;20.48;;;-1.50;100.00;;;;;;5001737;28;20050;-95
2023/01/20 03:23:50;;;;;;;63.30;20.67;;;-1.50;100.00;;;;;;5019116;28;20069;-95
2023/01/20 03:26:22;;;;;;;66.05;19.60;;;-1.40;100.00;;;;;;5002294;28;20119;-95
2023/01/20 03:29:03;;;;;;;84.25;22.02;;;-1.40;100.00;;;;;;5003359;28;20056;-96
2023/01/20 03:31:49;;;;;;;75.43;21.02;;;-1.40;100.00;;;;;;5002427;28;20049;-96
2023/01/20 03:34:23;;;;;;;69.25;19.02;;;-1.30;100.00;;;;;;5020314;28;20046;-96
2023/01/20 03:36:55;;;;;;;71.38;20.63;;;-1.30;100.00;;;;;;5019423;28;20076;-96
2023/01/20 03:39:27;;;;;;;68.15;21.13;;;-1.30;100.00;;;;;;4999384;28;20056;-95
2023/01/20 03:42:34;;;;;;;73.03;21.48;;;-1.40;100.00;;;;;;5018219;28;20100;-96
2023/01/20 03:45:40;;;;;;;68.22;19.33;;;-1.30;100.00;;;;;;5015783;28;20100;-96
2023/01/20 03:48:33;;;;;;;78.40;20.30;;;-1.20;100.00;;;;;;5004570;28;20073;-96
2023/01/20 03:51:45;;;;;;;64.50;19.75;;;-1.20;100.00;;;;;;4987254;28;20092;-96
2023/01/20 03:54:43;;;;;;;72.93;19.50;;;-1.20;100.00;;;;;;4988632;28;20051;-96
2023/01/20 03:57:18;;;;;;;73.90;22.17;;;-1.20;100.00;;;;;;4999968;28;20058;-96
2023/01/20 03:59:53;;;;;;;73.65;20.73;;;-1.20;100.00;;;;;;4967745;28;20050;-96
2023/01/20 04:02:24;;;;;;;75.75;21.75;;;-1.20;100.00;;;;;;5012086;28;20053;-96
2023/01/20 04:08:17;;;;;;;63.60;20.98;;;-1.20;100.00;;;;;;4974740;28;20098;-96
2023/01/20 04:10:55;;;;;;;80.15;22.02;;;-1.30;100.00;;;;;;4997220;28;20077;-96
2023/01/20 04:13:29;;;;;;;66.97;19.90;;;-1.30;100.00;;;;;;5004893;28;20108;-96
2023/01/20 04:15:59;;;;;;;79.22;21.40;;;-1.30;100.00;;;;;;4982328;28;20376;-96
2023/01/20 04:18:40;;;;;;;69.95;21.27;;;-1.40;100.00;;;;;;4984883;28;20450;-96
2023/01/20 04:21:35;;;;;;;79.03;21.88;;;-1.40;100.00;;;;;;4983708;28;20050;-96
2023/01/20 04:24:31;;;;;;;76.53;22.08;;;-1.40;100.00;;;;;;4982126;28;20050;-96
2023/01/20 04:27:13;;;;;;;76.00;20.15;;;-1.40;100.00;;;;;;4984020;28;20050;-96
2023/01/20 04:29:49;;;;;;;67.35;20.27;;;-1.40;100.00;;;;;;4997109;28;20056;-96
2023/01/20 04:32:23;;;;;;;74.45;20.65;;;-1.30;100.00;;;;;;4982593;28;20042;-96
2023/01/20 04:34:56;;;;;;;75.60;23.33;;;-1.30;100.00;;;;;;4981891;28;20062;-96
2023/01/20 04:37:31;;;;;;;77.65;22.50;;;-1.30;100.00;;;;;;4982063;28;20050;-96
2023/01/20 04:40:03;;;;;;;73.10;21.13;;;-1.20;100.00;;;;;;4982870;28;20054;-96
2023/01/20 04:42:34;;;;;;;74.10;20.75;;;-1.20;100.00;;;;;;4985924;28;20069;-96
2023/01/20 04:45:02;;;;;;;75.63;21.95;;;-1.10;100.00;;;;;;5028300;28;20081;-96
2023/01/20 04:47:32;;;;;;;69.53;22.50;;;-1.10;100.00;;;;;;5029693;28;20054;-94
2023/01/20 04:50:01;;;;;;;91.05;21.38;;;-1.10;100.00;;;;;;5018228;28;20120;-96
2023/01/20 04:52:29;;;;;;;92.28;22.13;;;-1.10;100.00;;;;;;4984085;28;20050;-96
2023/01/20 04:54:58;;;;;;;64.35;18.95;;;-1.00;100.00;;;;;;5016405;28;20048;-96
2023/01/20 04:57:41;;;;;;;72.38;20.63;;;-1.00;100.00;;;;;;5016088;28;20109;-96
2023/01/20 05:00:18;;;;;;;79.90;22.13;;;-1.00;100.00;;;;;;5000574;28;20415;-95
2023/01/20 05:02:49;;;;;;;68.95;20.95;;;-1.00;100.00;;;;;;5016031;28;20054;-95
2023/01/20 05:05:18;;;;;;;74.28;21.90;;;-1.00;100.00;;;;;;5014483;28;20053;-95
2023/01/20 05:07:53;;;;;;;72.65;21.95;;;-0.90;100.00;;;;;;5006584;28;20115;-94
2023/01/20 05:10:23;;;;;;;68.35;20.40;;;-0.90;100.00;;;;;;4992179;28;20586;-94
2023/01/20 05:12:56;;;;;;;80.78;20.10;;;-0.90;100.00;;;;;;5010843;28;20172;-93
2023/01/20 05:15:26;;;;;;;73.40;21.50;;;-0.90;100.00;;;;;;5005697;28;20045;-93
2023/01/20 05:17:55;;;;;;;85.50;22.48;;;-0.90;100.00;;;;;;5011558;28;20445;-95
2023/01/20 05:20:23;;;;;;;76.60;21.63;;;-0.90;100.00;;;;;;4993423;28;20103;-94
2023/01/20 05:22:53;;;;;;;72.68;23.42;;;-0.90;100.00;;;;;;5010851;28;20110;-94
2023/01/20 05:25:23;;;;;;;79.93;21.55;;;-0.90;100.00;;;;;;4978848;28;20433;-94
2023/01/20 05:27:55;;;;;;;72.13;20.88;;;-0.90;100.00;;;;;;5013830;28;20049;-94
2023/01/20 05:30:34;;;;;;;67.47;21.05;;;-0.90;100.00;;;;;;5012945;28;20042;-94
2023/01/20 05:33:08;;;;;;;75.95;22.00;;;-0.80;100.00;;;;;;4997930;28;20046;-95
2023/01/20 05:35:42;;;;;;;81.05;22.75;;;-0.90;100.00;;;;;;4994594;28;20479;-94
2023/01/20 05:38:11;;;;;;;73.82;22.15;;;-0.80;100.00;;;;;;4996892;28;20049;-93
2023/01/20 05:40:38;;;;;;;78.85;22.17;;;-0.80;100.00;;;;;;4977136;28;20128;-94
2023/01/20 05:43:06;;;;;;;89.15;24.70;;;-0.80;100.00;;;;;;4997211;28;20368;-94
2023/01/20 05:45:48;;;;;;;88.10;22.55;;;-0.80;100.00;;;;;;5006170;28;20455;-95
2023/01/20 05:48:16;;;;;;;80.85;20.55;;;-0.70;100.00;;;;;;4992670;28;20062;-95
2023/01/20 05:50:44;;;;;;;75.40;21.20;;;-0.70;100.00;;;;;;5001884;28;20050;-94
2023/01/20 05:53:15;;;;;;;84.68;24.02;;;-0.70;100.00;;;;;;4990407;28;20042;-93
2023/01/20 05:55:49;;;;;;;;;;;-0.70;100.00;;;;;;4974503;28;20065;-94
2023/01/20 05:58:47;;;;;;;85.50;22.45;;;-0.70;100.00;;;;;;4998203;28;19924;-94
2023/01/20 06:01:20;;;;;;;77.63;22.95;;;-0.60;100.00;;;;;;5001755;28;20046;-96
2023/01/20 06:04:02;;;;;;;87.30;22.50;;;-0.60;100.00;;;;;;4994273;28;20045;-96
2023/01/20 06:06:46;;;;;;;73.82;23.10;;;-0.60;100.00;;;;;;4994266;28;20285;-95
2023/01/20 06:09:17;;;;;;;70.22;20.35;;;-0.60;100.00;;;;;;4999425;28;20049;-94
2023/01/20 06:11:51;;;;;;;78.15;21.75;;;-0.60;100.00;;;;;;5003520;28;20505;-92
2023/01/20 06:14:25;;;;;;;74.07;21.60;;;-0.60;100.00;;;;;;5012414;28;20045;-94
2023/01/20 06:20:47;;;;;;;74.07;22.10;;;-0.50;100.00;;;;;;4998682;23;20045;-77
2023/01/20 06:23:15;;;;;;;73.32;21.77;;;-0.50;100.00;;;;;;4995355;28;20073;-76
2023/01/20 06:25:42;;;;;;;82.90;21.98;;;-0.50;100.00;;;;;;4972289;28;20402;-74
2023/01/20 06:28:09;;;;;;;76.95;24.27;;;-0.50;100.00;;;;;;4978261;28;20050;-75
2023/01/20 06:30:36;;;;;;;79.65;21.65;;;-0.50;99.90;;;;;;4986894;28;20375;-75
2023/01/20 06:33:09;;;;;;;71.63;22.52;;;-0.50;99.80;;;;;;4974014;28;20076;-85
2023/01/20 06:35:36;;;;;;;85.68;22.27;;;-0.50;99.80;;;;;;4969740;28;20053;-87
2023/01/20 06:38:03;;;;;;;89.30;22.40;;;-0.50;99.80;;;;;;4976131;28;20058;-85
2023/01/20 06:40:30;;;;;;;70.85;23.25;;;-0.40;99.40;;;;;;4965483;28;20065;-84
2023/01/20 06:42:58;;;;;;;79.38;25.25;;;-0.40;99.20;;;;;;4984150;28;20743;-82
2023/01/20 06:45:25;;;;;;;68.28;21.00;;;-0.40;99.40;;;;;;4985748;28;20060;-81
2023/01/20 06:47:51;;;;;;;72.28;20.08;;;-0.40;99.20;;;;;;4971986;28;20522;-80
2023/01/20 06:50:18;;;;;;;72.05;20.30;;;-0.40;99.10;;;;;;4975836;28;20073;-81
2023/01/20 06:52:45;;;;;;;85.65;22.65;;;-0.40;99.10;;;;;;4975709;28;20045;-82
2023/01/20 06:55:12;;;;;;;83.22;21.65;;;-0.40;99.20;;;;;;4970968;28;20056;-81
2023/01/20 06:57:39;;;;;;;70.88;21.17;;;-0.40;98.80;;;;;;4993442;28;20057;-81
2023/01/20 07:00:07;;;;;;;91.03;21.40;;;-0.40;98.90;;;;;;4983097;28;20048;-81
2023/01/20 07:02:33;;;;;;;86.05;21.35;;;-0.40;98.90;;;;;;4996490;28;20325;-82
2023/01/20 07:05:01;;;;;;;80.00;21.67;;;-0.40;98.80;;;;;;4996559;28;20054;-81
2023/01/20 07:07:28;;;;;;;86.97;21.05;;;-0.40;98.40;;;;;;4997373;28;20086;-82
2023/01/20 07:09:55;;;;;;;72.82;21.98;;;-0.40;98.50;;;;;;4997361;28;20056;-82
2023/01/20 07:12:22;;;;;;;72.63;20.77;;;-0.40;98.60;;;;;;4982001;28;21301;-83
2023/01/20 07:14:49;;;;;;;78.68;21.15;;;-0.40;98.40;;;;;;4997669;28;20077;-81
2023/01/20 07:17:16;;;;;;;63.65;19.67;;;-0.40;98.40;;;;;;4997969;28;20048;-82
2023/01/20 07:19:43;;;;;;;77.75;20.95;;;-0.30;98.60;;;;;;4994984;28;20092;-81
2023/01/20 07:22:09;;;;;;;67.05;22.27;;;-0.30;98.40;;;;;;4992986;28;20053;-81
2023/01/20 07:24:36;;;;;;;74.22;20.30;;;-0.30;98.60;;;;;;4976148;28;20061;-81
2023/01/20 07:27:03;;;;;;;66.70;20.67;;;-0.30;98.50;;;;;;4983267;28;20061;-81
2023/01/20 07:29:30;;;;;;;73.43;22.83;;;-0.30;98.40;;;;;;4983052;28;20455;-81
2023/01/20 07:31:57;;;;;;;77.82;20.58;;;-0.30;98.60;;;;;;4977983;28;20065;-82
2023/01/20 07:34:24;;;;;;;67.78;19.80;;;-0.30;98.60;;;;;;4982872;28;20057;-81
2023/01/20 07:36:52;;;;;;;76.15;22.92;;;-0.30;98.80;;;;;;4979922;28;20491;-81
2023/01/20 07:39:19;;;;;;;74.53;21.38;;;-0.20;98.80;;;;;;4983692;28;20066;-81
2023/01/20 07:41:50;;;;;;;72.00;20.30;;;-0.20;98.80;;;;;;4995951;28;20061;-81
2023/01/20 07:44:16;;;;;;;76.50;20.38;;;-0.20;98.60;;;;;;4995291;28;20053;-81
2023/01/20 07:46:43;;;;;;;78.88;22.65;;;-0.10;98.50;;;;;;4982161;28;20771;-81
2023/01/20 07:49:11;;;;;;;82.00;20.88;;;-0.10;98.50;;;;;;4996625;28;20046;-80
2023/01/20 07:51:38;;;;;;;67.35;21.65;;;-0.10;98.40;;;;;;5000810;28;20049;-81
2023/01/20 07:54:05;;;;;;;76.00;21.75;;;-0.10;98.50;;;;;;5005672;28;20042;-82
2023/01/20 07:56:32;;;;;;;71.35;20.00;;;-0.10;98.30;;;;;;4990438;28;20278;-82
2023/01/20 07:59:00;;;;;;;80.18;22.25;;;0.00;98.10;;;;;;5005052;28;20400;-82
2023/01/20 08:01:30;;;;;;;76.30;21.60;;;0.00;98.00;;;;;;5003509;28;20839;-81
2023/01/20 08:04:01;;;;;;;79.57;21.77;;;0.00;98.00;;;;;;4984597;28;20410;-82
2023/01/20 08:06:28;;;;;;;76.18;21.67;;;0.00;98.00;;;;;;4987247;28;20050;-80
2023/01/20 08:08:58;;;;;;;78.43;20.88;;;0.00;97.70;;;;;;5003280;28;20038;-81
2023/01/20 08:11:25;;;;;;;64.25;20.90;;;0.00;97.80;;;;;;4987554;28;20489;-81
2023/01/20 08:13:52;;;;;;;62.92;19.00;;;0.00;97.80;;;;;;5013144;28;20048;-81
2023/01/20 08:16:19;;;;;;;63.00;20.45;;;0.00;97.60;;;;;;5022118;28;20060;-83
2023/01/20 08:18:46;;;;;;;72.80;20.98;;;0.00;97.50;;;;;;4993177;28;20058;-84
2023/01/20 08:21:29;;;;;;;73.80;20.38;;;0.00;97.40;;;;;;4986203;28;20070;-82
2023/01/20 08:23:58;;;;;;;67.75;20.10;;;0.00;97.50;;;;;;4995887;28;20505;-83
2023/01/20 08:26:28;;;;;;;70.20;19.60;;;0.10;97.50;;;;;;4996518;28;20517;-81
2023/01/20 08:29:00;;;;;;;81.28;21.65;;;0.10;97.30;;;;;;4994498;28;20158;-82
2023/01/20 08:31:28;;;;;;;67.43;19.45;;;0.10;97.20;;;;;;4993664;28;20060;-82
2023/01/20 08:33:55;;;;;;;71.15;19.83;;;0.10;96.90;;;;;;4994827;28;20156;-82
2023/01/20 08:36:31;;;;;;;68.07;18.83;;;0.10;97.20;;;;;;4983059;28;20054;-83
2023/01/20 08:39:01;;;;;;;63.50;19.33;;;0.10;97.00;;;;;;5002266;28;20050;-82
2023/01/20 08:41:31;;;;;;;77.28;19.45;;;0.10;96.80;;;;;;5007061;28;20046;-82
2023/01/20 08:44:01;;;;;;;67.22;18.75;;;0.10;96.80;;;;;;5002260;28;20058;-80
2023/01/20 08:46:28;;;;;;;65.28;20.15;;;0.20;96.40;;;;;;5006178;28;20061;-78
2023/01/20 08:48:55;;;;;;;60.95;18.60;;;0.20;96.60;;;;;;4987585;28;20057;-79
2023/01/20 08:51:31;;;;;;;70.30;20.60;;;0.20;96.60;;;;;;4987191;28;20057;-79
2023/01/20 08:53:58;;;;;;;68.00;18.58;;;0.20;96.90;;;;;;5000908;28;20064;-84
2023/01/20 08:56:25;;;;;;;57.75;19.33;;;0.20;96.90;;;;;;4991067;28;20144;-84
2023/01/20 08:58:53;;;;;;;62.97;19.02;;;0.30;96.50;;;;;;4987892;28;20069;-84
2023/01/20 09:01:22;;;;;;;59.95;19.90;;;0.30;95.80;;;;;;5008847;28;20046;-83
2023/01/20 09:03:49;;;;;;;69.60;19.92;;;0.30;96.10;;;;;;4986628;28;20049;-84
2023/01/20 09:06:40;;;;;;;65.03;20.20;;;0.30;96.40;;;;;;5003132;28;21466;-86
2023/01/20 09:09:07;;;;;;;53.38;18.83;;;0.30;96.00;;;;;;4989647;28;20069;-85
2023/01/20 09:11:34;;;;;;;63.95;18.40;;;0.30;96.00;;;;;;5005446;28;20053;-84
2023/01/20 09:14:01;;;;;;;57.25;18.88;;;0.40;96.10;;;;;;5004298;28;20049;-84
2023/01/20 09:16:28;;;;;;;57.55;18.15;;;0.40;95.70;;;;;;5005741;28;20069;-84
2023/01/20 09:18:55;;;;;;;63.15;18.85;;;0.40;95.60;;;;;;4988159;28;20046;-83
2023/01/20 09:21:22;;;;;;;58.83;18.05;;;0.40;94.90;;;;;;4988242;28;20387;-83
2023/01/20 09:23:49;;;;;;;71.72;19.40;;;0.50;95.00;;;;;;4987048;28;20058;-83
2023/01/20 09:26:16;;;;;;;52.90;18.27;;;0.50;94.80;;;;;;4988147;28;20057;-83
2023/01/20 09:29:07;;;;;;;70.78;20.40;;;0.50;94.80;;;;;;5004387;28;20678;-82
2023/01/20 09:31:43;;;;;;;61.08;18.70;;;0.50;95.30;;;;;;5010054;28;20458;-84
2023/01/20 09:34:18;;;;;;;61.42;18.50;;;0.60;94.90;;;;;;5008740;28;20479;-83
2023/01/20 09:36:56;;;;;;;62.97;18.23;;;0.60;95.10;;;;;;4992854;28;20463;-74
2023/01/20 09:45:36;;;;;;;57.87;16.07;;;0.70;93.00;;;;;;4997576;28;20066;-75
2023/01/20 09:54:28;;;;;;;59.10;19.67;;;0.80;92.30;;;;;;4993966;28;20050;-75
2023/01/20 09:56:59;;;;;;;61.67;17.52;;;0.80;92.50;;;;;;4977399;28;20046;-84
2023/01/20 09:59:32;;;;;;;60.83;18.23;;;0.80;92.70;;;;;;5010331;28;20050;-85
2023/01/20 10:02:05;;;;;;;51.42;17.27;;;0.80;92.30;;;;;;4993518;28;20054;-84
2023/01/20 10:04:40;;;;;;;57.15;17.40;;;0.80;92.00;;;;;;4992393;28;20058;-84
2023/01/20 10:07:35;;;;;;;52.45;17.27;;;0.80;92.40;;;;;;4989317;28;20046;-85
2023/01/20 10:10:13;;;;;;;53.83;16.63;;;0.80;92.10;;;;;;5005695;28;20722;-85
2023/01/20 10:12:53;;;;;;;49.13;17.17;;;0.80;92.20;;;;;;4986270;28;20561;-85
2023/01/20 10:15:34;;;;;;;52.13;18.60;;;0.80;91.80;;;;;;5010451;28;20057;-84
2023/01/20 10:18:26;;;;;;;43.90;15.18;;;0.80;92.00;;;;;;5006243;28;20212;-85
2023/01/20 10:21:06;;;;;;;55.38;16.90;;;0.80;92.20;;;;;;5003501;28;20056;-84
2023/01/20 10:23:53;;;;;;;51.45;16.90;;;0.90;91.40;;;;;;5001885;28;20569;-84
2023/01/20 10:26:32;;;;;;;56.75;17.63;;;0.90;90.90;;;;;;4984183;28;20081;-85
2023/01/20 10:29:02;;;;;;;54.28;17.25;;;1.00;91.00;;;;;;5003925;28;20053;-84
2023/01/20 10:31:45;;;;;;;51.13;17.45;;;1.00;90.70;;;;;;4986171;28;20060;-84
2023/01/20 10:34:18;;;;;;;58.42;17.33;;;1.00;91.40;;;;;;4985039;28;20509;-83
2023/01/20 10:36:59;;;;;;;57.33;18.15;;;1.00;91.40;;;;;;4994909;28;20042;-83
2023/01/20 10:39:51;;;;;;;50.55;17.58;;;1.10;91.20;;;;;;5013506;28;20045;-83
2023/01/20 10:42:19;;;;;;;50.13;16.27;;;1.10;91.00;;;;;;4991059;28;20076;-84
2023/01/20 10:44:48;;;;;;;58.10;17.85;;;1.00;90.40;;;;;;4988933;28;20081;-77
2023/01/20 10:47:32;;;;;;;47.20;15.93;;;1.00;91.10;;;;;;5006489;28;20073;-77
2023/01/20 10:50:17;;;;;;;45.28;16.95;;;1.00;91.10;;;;;;4987048;28;20050;-77
2023/01/20 10:53:00;;;;;;;52.78;16.55;;;1.00;91.20;;;;;;5004432;28;20073;-77
2023/01/20 10:56:03;;;;;;;38.25;13.95;;;1.00;91.20;;;;;;4989002;28;20115;-77
2023/01/20 10:58:39;;;;;;;41.50;14.40;;;1.00;91.10;;;;;;5005190;28;20042;-78
2023/01/20 11:01:09;;;;;;;55.95;16.80;;;1.10;90.90;;;;;;4994990;28;20533;-76
2023/01/20 11:03:41;;;;;;;47.38;14.82;;;1.10;90.70;;;;;;5006168;28;20071;-76
2023/01/20 11:06:20;;;;;;;40.03;14.77;;;1.20;90.70;;;;;;4992180;28;20049;-76
2023/01/20 11:08:47;;;;;;;56.50;16.58;;;1.20;90.20;;;;;;4987650;28;20042;-76
2023/01/20 11:11:18;;;;;;;44.22;17.70;;;1.20;89.30;;;;;;4991070;28;20049;-76
2023/01/20 11:13:45;;;;;;;51.38;17.17;;;1.20;90.20;;;;;;4985367;28;20100;-76
2023/01/20 11:16:25;;;;;;;44.58;15.80;;;1.20;90.00;;;;;;4975919;28;20053;-77
2023/01/20 11:18:57;;;;;;;49.55;16.27;;;1.20;89.60;;;;;;4979221;28;20060;-76
2023/01/20 11:21:26;;;;;;;46.92;17.25;;;1.30;90.00;;;;;;4987349;28;20046;-76
2023/01/20 11:23:55;;;;;;;45.25;15.65;;;1.20;89.80;;;;;;4996784;28;20053;-76
2023/01/20 11:26:36;;;;;;;49.22;16.08;;;1.30;89.90;;;;;;4986618;28;20459;-76
2023/01/20 11:29:09;;;;;;;47.22;16.33;;;1.30;90.10;;;;;;4990304;28;20050;-76
2023/01/20 11:31:38;;;;;;;48.15;15.85;;;1.30;89.70;;;;;;4990927;28;20522;-77
2023/01/20 11:34:35;;;;;;;52.45;16.13;;;1.20;89.00;;;;;;4990197;28;20049;-76
2023/01/20 11:37:05;;;;;;;39.53;14.25;;;1.20;89.60;;;;;;5009179;28;20549;-76
2023/01/20 11:39:48;;;;;;;39.00;14.25;;;1.10;89.20;;;;;;5006269;28;20050;-76
2023/01/20 11:42:15;;;;;;;38.33;14.18;;;1.10;90.10;;;;;;4990009;28;20104;-77
2023/01/20 11:44:51;;;;;;;40.95;15.63;;;1.20;89.50;;;;;;4993181;28;20060;-77
2023/01/20 11:47:25;;;;;;;44.08;14.57;;;1.20;89.50;;;;;;4990620;28;20413;-76
2023/01/20 11:50:07;;;;;;;41.55;15.00;;;1.10;89.30;;;;;;5010938;28;20141;-77
2023/01/20 11:52:43;;;;;;;55.67;16.80;;;1.10;89.60;;;;;;4988312;28;20355;-75
2023/01/20 11:55:20;;;;;;;40.17;15.40;;;1.10;89.30;;;;;;5006638;28;20057;-75
2023/01/20 11:58:00;;;;;;;41.92;14.38;;;1.10;89.50;;;;;;4985429;28;20088;-75
2023/01/20 12:00:42;;;;;;;46.50;15.23;;;1.10;88.90;;;;;;4997792;28;20053;-75
2023/01/20 12:03:12;;;;;;;44.53;15.77;;;1.10;89.10;;;;;;4978704;28;20046;-75
2023/01/20 12:06:01;;;;;;;47.78;17.60;;;1.10;89.60;;;;;;4997507;28;21394;-75
2023/01/20 12:08:52;;;;;;;49.60;17.23;;;1.10;89.40;;;;;;4980122;28;20050;-76
2023/01/20 12:11:29;;;;;;;54.28;15.52;;;1.10;89.50;;;;;;4991459;28;21529;-79
2023/01/20 12:14:22;;;;;;;47.78;15.65;;;1.00;89.90;;;;;;5005434;28;20486;-77
2023/01/20 12:17:27;;;;;;;49.58;16.40;;;1.00;90.30;;;;;;5005903;28;20078;-78
2023/01/20 12:20:16;;;;;;;50.13;15.17;;;1.00;89.90;;;;;;4993950;28;20521;-77
2023/01/20 12:23:04;;;;;;;49.60;14.68;;;1.00;90.00;;;;;;4989781;28;20164;-75
2023/01/20 12:25:55;;;;;;;44.70;14.57;;;0.90;89.80;;;;;;4990354;28;20068;-74
2023/01/20 12:28:29;;;;;;;41.35;14.20;;;0.90;90.20;;;;;;4992914;28;21075;-75
2023/01/20 12:31:04;;;;;;;50.53;14.90;;;0.90;90.10;;;;;;4995677;28;20049;-76
2023/01/20 12:33:32;;;;;;;;;;;0.80;90.30;;;;;;4976433;28;20474;-75
2023/01/20 12:36:27;;;;;;;41.38;14.40;;;0.80;90.40;;;;;;4993520;28;19929;-75
2023/01/20 12:38:56;;;;;;;46.63;15.10;;;0.80;90.40;;;;;;4984608;28;20381;-77
2023/01/20 12:42:03;;;;;;;41.10;14.07;;;0.90;90.30;;;;;;4991968;28;20050;-76
2023/01/20 12:44:36;;;;;;;41.63;15.55;;;0.90;90.20;;;;;;4972530;28;20060;-76
2023/01/20 12:47:02;;;;;;;43.47;15.80;;;0.90;90.10;;;;;;4993861;28;20453;-75
2023/01/20 12:49:52;;;;;;;47.53;14.77;;;0.80;89.50;;;;;;4975721;28;20554;-75
2023/01/20 12:52:44;;;;;;;50.03;15.70;;;0.80;89.80;;;;;;4989871;28;20133;-76
2023/01/20 12:55:20;;;;;;;49.30;15.77;;;0.80;89.90;;;;;;4992995;28;21251;-75
2023/01/20 12:58:03;;;;;;;45.28;14.63;;;0.80;90.20;;;;;;4995069;28;20046;-76
2023/01/20 13:01:07;;;;;;;55.55;17.00;;;0.90;90.50;;;;;;4993690;28;20356;-76
2023/01/20 13:03:43;;;;;;;45.65;15.00;;;0.80;89.90;;;;;;4994098;28;20144;-76
2023/01/20 13:06:22;;;;;;;43.35;15.57;;;0.80;89.80;;;;;;4988613;28;20054;-81
2023/01/20 13:09:00;;;;;;;41.13;14.32;;;0.70;89.50;;;;;;4976740;28;20053;-81
2023/01/20 13:11:56;;;;;;;40.60;14.77;;;0.60;89.70;;;;;;4960938;28;20693;-78
2023/01/20 13:14:32;;;;;;;51.28;14.95;;;0.60;89.70;;;;;;4954343;28;20054;-77
2023/01/20 13:17:10;;;;;;;43.70;15.05;;;0.60;89.90;;;;;;4960493;28;20062;-80
2023/01/20 13:19:45;;;;;;;54.95;17.63;;;0.60;90.00;;;;;;4979777;28;20051;-82
2023/01/20 13:22:17;;;;;;;46.55;14.85;;;0.60;90.20;;;;;;4964770;28;20491;-85
2023/01/20 13:24:47;;;;;;;48.42;15.40;;;0.60;90.20;;;;;;4963551;28;20106;-85
2023/01/20 13:27:19;;;;;;;44.08;13.65;;;0.60;90.60;;;;;;4962461;28;20077;-85